Time;durP1;ratioP1;P1;durP2;ratioP2;P2;SDS_P1;SDS_P2;PMS_P1;PMS_P2;Temp;Humidity;BMP_temperature;BMP_pressure;BME280_temperature;BME280_humidity;BME280_pressure;Samples;Min_cycle;Max_cycle;Signal;HPM_P1;HPM_P2
2023/04/20 00:01:47;;;;;;;0.73;0.73;;;8.40;99.90;;;;;;5027391;28;20551;-85
2023/04/20 00:04:16;;;;;;;1.70;1.03;;;8.40;99.90;;;;;;5027527;28;20202;-86
2023/04/20 00:06:43;;;;;;;3.53;0.60;;;8.30;99.90;;;;;;5027181;28;20270;-85
2023/04/20 00:09:14;;;;;;;1.20;1.10;;;8.30;99.90;;;;;;5010983;28;20188;-85
2023/04/20 00:11:40;;;;;;;1.23;1.10;;;8.30;99.90;;;;;;5027281;28;20222;-84
2023/04/20 00:14:05;;;;;;;0.77;0.60;;;8.40;99.90;;;;;;5027259;28;20238;-85
2023/04/20 00:16:31;;;;;;;1.67;1.30;;;8.30;99.90;;;;;;5011964;28;20188;-86
2023/04/20 00:18:58;;;;;;;0.57;0.57;;;8.40;99.90;;;;;;5012056;28;20214;-85
2023/04/20 00:21:24;;;;;;;0.90;0.80;;;8.40;99.90;;;;;;5026962;28;20215;-84
2023/04/20 00:23:50;;;;;;;0.80;0.80;;;8.30;99.90;;;;;;5027189;28;20589;-84
2023/04/20 00:26:17;;;;;;;3.50;0.73;;;8.30;99.90;;;;;;5026872;28;20445;-85
2023/04/20 00:28:44;;;;;;;1.10;1.07;;;8.40;99.90;;;;;;5026950;28;20183;-86
2023/04/20 00:31:10;;;;;;;0.53;0.53;;;8.40;99.90;;;;;;5026763;28;20175;-84
2023/04/20 00:33:35;;;;;;;1.20;1.20;;;8.40;99.90;;;;;;5010650;28;20715;-85
2023/04/20 00:36:01;;;;;;;1.63;1.23;;;8.50;99.90;;;;;;5026574;28;20278;-84
2023/04/20 00:38:27;;;;;;;0.77;0.77;;;8.50;99.90;;;;;;5010948;28;20182;-84
2023/04/20 00:40:56;;;;;;;1.07;0.60;;;8.50;99.90;;;;;;5011221;28;20211;-85
2023/04/20 00:43:23;;;;;;;1.53;1.43;;;8.60;99.90;;;;;;5026706;28;20279;-85
2023/04/20 00:45:51;;;;;;;3.90;1.17;;;8.60;99.90;;;;;;5026599;28;20573;-87
2023/04/20 00:48:17;;;;;;;0.50;0.50;;;8.70;99.90;;;;;;5026486;28;20194;-86
2023/04/20 00:50:43;;;;;;;0.63;0.60;;;8.70;99.90;;;;;;5011243;28;20187;-87
2023/04/20 00:53:10;;;;;;;2.37;1.10;;;8.70;99.90;;;;;;5011570;28;20273;-86
2023/04/20 00:55:37;;;;;;;0.30;0.30;;;8.70;99.90;;;;;;5011334;28;20200;-85
2023/04/20 00:58:03;;;;;;;1.50;0.67;;;8.70;99.90;;;;;;5026329;28;20258;-86
2023/04/20 01:00:28;;;;;;;0.70;0.70;;;8.70;99.90;;;;;;5009960;28;20274;-86
2023/04/20 01:02:54;;;;;;;0.50;0.50;;;8.70;99.90;;;;;;5010100;28;20218;-87
2023/04/20 01:05:20;;;;;;;0.80;0.80;;;8.70;99.90;;;;;;5026584;28;20274;-86
2023/04/20 01:07:46;;;;;;;1.90;1.00;;;8.60;99.90;;;;;;5026388;28;20210;-85
2023/04/20 01:10:12;;;;;;;1.30;0.60;;;8.60;99.90;;;;;;5026344;28;20746;-85
2023/04/20 01:12:38;;;;;;;2.33;1.10;;;8.50;99.90;;;;;;5010980;28;20353;-86
2023/04/20 01:15:05;;;;;;;1.00;1.00;;;8.60;99.90;;;;;;5025953;28;20269;-85
2023/04/20 01:17:32;;;;;;;0.47;0.47;;;8.50;99.90;;;;;;5025306;28;20656;-86
2023/04/20 01:19:59;;;;;;;0.50;0.50;;;8.50;99.90;;;;;;5010697;28;20207;-85
2023/04/20 01:22:25;;;;;;;1.17;1.13;;;8.50;99.90;;;;;;5025987;28;20388;-87
2023/04/20 01:24:51;;;;;;;1.00;0.90;;;8.50;99.90;;;;;;5010615;28;20176;-86
2023/04/20 01:27:17;;;;;;;0.40;0.40;;;8.60;99.90;;;;;;5009622;28;20729;-86
2023/04/20 01:29:44;;;;;;;0.77;0.73;;;8.70;99.90;;;;;;5025771;28;20283;-86
2023/04/20 01:32:10;;;;;;;0.60;0.60;;;8.70;99.90;;;;;;5010551;28;20302;-88
2023/04/20 01:34:36;;;;;;;0.40;0.40;;;8.60;99.90;;;;;;5010056;28;20232;-86
2023/04/20 01:37:06;;;;;;;0.60;0.53;;;8.60;99.90;;;;;;5026003;28;20203;-86
2023/04/20 01:39:38;;;;;;;1.53;1.40;;;8.60;99.90;;;;;;5025110;28;20176;-86
2023/04/20 01:42:05;;;;;;;0.47;0.47;;;8.60;99.90;;;;;;5010709;28;20205;-85
2023/04/20 01:44:30;;;;;;;0.93;0.60;;;8.70;99.90;;;;;;5025842;28;20175;-86
2023/04/20 01:46:56;;;;;;;1.20;0.70;;;8.70;99.90;;;;;;5025505;28;20545;-85
2023/04/20 01:49:22;;;;;;;0.80;0.80;;;8.70;99.90;;;;;;5010251;28;20667;-85
2023/04/20 01:51:48;;;;;;;2.87;0.87;;;8.70;99.90;;;;;;5024987;28;20207;-86
2023/04/20 01:54:14;;;;;;;1.27;0.67;;;8.70;99.90;;;;;;5025320;28;20218;-85
2023/04/20 01:56:40;;;;;;;1.00;0.73;;;8.60;99.90;;;;;;5024063;28;20234;-85
2023/04/20 01:59:05;;;;;;;0.50;0.50;;;8.60;99.90;;;;;;5025717;28;20183;-84
2023/04/20 02:01:31;;;;;;;0.60;0.60;;;8.60;99.90;;;;;;5025271;28;20230;-85
2023/04/20 02:03:57;;;;;;;2.87;0.80;;;8.60;99.90;;;;;;5010254;28;20179;-85
2023/04/20 02:06:22;;;;;;;1.53;1.43;;;8.60;99.90;;;;;;5025608;28;20234;-84
2023/04/20 02:08:48;;;;;;;3.50;1.17;;;8.60;99.90;;;;;;5025410;28;20637;-84
2023/04/20 02:11:14;;;;;;;0.90;0.90;;;8.60;99.90;;;;;;5025245;28;20645;-86
2023/04/20 02:13:40;;;;;;;1.60;0.90;;;8.60;99.90;;;;;;5025309;28;20263;-86
2023/04/20 02:16:06;;;;;;;3.70;0.73;;;8.60;99.90;;;;;;5025188;28;20183;-85
2023/04/20 02:18:32;;;;;;;8.40;1.03;;;8.60;99.90;;;;;;5009744;28;20211;-84
2023/04/20 02:20:59;;;;;;;2.10;0.83;;;8.60;99.90;;;;;;5025247;28;20211;-85
2023/04/20 02:23:25;;;;;;;0.90;0.90;;;8.60;99.90;;;;;;5009991;28;20183;-86
2023/04/20 02:25:51;;;;;;;2.73;1.40;;;8.50;99.90;;;;;;5024984;28;20553;-85
2023/04/20 02:28:16;;;;;;;4.77;0.53;;;8.50;99.90;;;;;;5025443;28;20194;-85
2023/04/20 02:30:42;;;;;;;1.60;0.63;;;8.50;99.90;;;;;;5009555;28;20633;-86
2023/04/20 02:33:09;;;;;;;0.87;0.87;;;8.50;99.90;;;;;;5027867;28;20207;-85
2023/04/20 02:35:35;;;;;;;0.80;0.30;;;8.40;99.90;;;;;;5028694;28;20357;-86
2023/04/20 02:38:00;;;;;;;4.90;1.10;;;8.40;99.90;;;;;;5028973;28;20278;-85
2023/04/20 02:40:26;;;;;;;4.97;1.50;;;8.40;99.90;;;;;;5012597;28;20537;-84
2023/04/20 02:42:52;;;;;;;1.83;1.00;;;8.40;99.90;;;;;;5013515;28;20257;-83
2023/04/20 02:45:18;;;;;;;1.50;1.50;;;8.40;99.90;;;;;;5013189;28;20707;-85
2023/04/20 02:47:44;;;;;;;1.53;1.30;;;8.40;99.90;;;;;;5027998;28;20641;-86
2023/04/20 02:50:10;;;;;;;0.60;0.60;;;8.30;99.90;;;;;;5013381;28;20184;-85
2023/04/20 02:52:35;;;;;;;0.40;0.40;;;8.30;99.90;;;;;;5028355;28;20423;-85
2023/04/20 02:55:01;;;;;;;0.70;0.60;;;8.40;99.90;;;;;;5028452;28;20779;-85
2023/04/20 02:57:27;;;;;;;0.73;0.73;;;8.30;99.90;;;;;;5013097;28;20178;-84
2023/04/20 02:59:53;;;;;;;1.27;0.57;;;8.40;99.90;;;;;;5028469;28;20270;-86
2023/04/20 03:02:19;;;;;;;0.40;0.40;;;8.40;99.90;;;;;;5013341;28;20271;-85
2023/04/20 03:04:44;;;;;;;0.90;0.90;;;8.40;99.90;;;;;;5027116;28;20187;-85
2023/04/20 03:07:10;;;;;;;1.17;1.07;;;8.40;99.90;;;;;;5011941;28;20190;-85
2023/04/20 03:09:36;;;;;;;3.73;0.83;;;8.40;99.90;;;;;;5027234;28;20271;-85
2023/04/20 03:12:04;;;;;;;6.53;2.00;;;8.40;99.90;;;;;;5027311;28;20277;-87
2023/04/20 03:14:29;;;;;;;0.63;0.63;;;8.50;99.90;;;;;;5027575;28;20194;-86
2023/04/20 03:16:56;;;;;;;0.30;0.30;;;8.60;99.90;;;;;;5011569;28;20629;-87
2023/04/20 03:19:22;;;;;;;1.53;0.40;;;8.50;99.90;;;;;;5028253;28;20329;-86
2023/04/20 03:21:47;;;;;;;0.60;0.60;;;8.50;99.90;;;;;;5028074;28;20660;-85
2023/04/20 03:24:13;;;;;;;1.50;0.80;;;8.50;99.90;;;;;;5011911;28;20195;-86
2023/04/20 03:26:39;;;;;;;1.37;0.60;;;8.50;99.90;;;;;;5026745;28;20183;-85
2023/04/20 03:29:05;;;;;;;1.17;1.13;;;8.50;99.90;;;;;;5026923;28;20191;-86
2023/04/20 03:31:30;;;;;;;0.70;0.53;;;8.50;99.90;;;;;;5026830;28;20782;-87
2023/04/20 03:33:56;;;;;;;0.40;0.40;;;8.40;99.90;;;;;;5026400;28;20743;-85
2023/04/20 03:36:22;;;;;;;0.97;0.90;;;8.40;99.90;;;;;;5026846;28;20613;-86
2023/04/20 03:38:48;;;;;;;0.70;0.70;;;8.40;99.90;;;;;;5012396;28;20638;-85
2023/04/20 03:41:14;;;;;;;2.13;0.80;;;8.40;99.90;;;;;;5027786;28;20183;-84
2023/04/20 03:43:40;;;;;;;2.17;1.60;;;8.40;99.90;;;;;;5026624;28;20188;-86
2023/04/20 03:46:06;;;;;;;0.47;0.40;;;8.50;99.90;;;;;;5027736;28;20183;-84
2023/04/20 03:48:32;;;;;;;2.43;0.80;;;8.50;99.90;;;;;;5027826;28;20653;-86
2023/04/20 03:50:58;;;;;;;1.90;0.77;;;8.60;99.90;;;;;;5027689;28;20589;-85
2023/04/20 03:53:25;;;;;;;0.93;0.93;;;8.60;99.90;;;;;;5010731;28;20310;-86
2023/04/20 03:55:50;;;;;;;0.83;0.83;;;8.60;99.90;;;;;;5027648;28;20523;-85
2023/04/20 03:58:16;;;;;;;1.30;1.20;;;8.60;99.90;;;;;;5027489;28;20195;-85
2023/04/20 04:00:42;;;;;;;0.97;0.70;;;8.60;99.90;;;;;;5027044;28;20179;-85
2023/04/20 04:03:09;;;;;;;1.93;0.70;;;8.60;99.90;;;;;;5010922;28;20189;-86
2023/04/20 04:05:35;;;;;;;3.43;1.50;;;8.70;99.90;;;;;;5027194;28;20233;-85
2023/04/20 04:08:01;;;;;;;2.47;1.20;;;8.70;99.90;;;;;;5027003;28;20187;-85
2023/04/20 04:10:26;;;;;;;1.43;1.33;;;8.70;99.90;;;;;;5010623;28;20190;-86
2023/04/20 04:12:52;;;;;;;1.00;1.00;;;8.80;99.90;;;;;;5027070;28;20221;-85
2023/04/20 04:15:18;;;;;;;1.00;1.00;;;8.70;99.90;;;;;;5026797;28;20176;-84
2023/04/20 04:17:44;;;;;;;1.00;0.83;;;8.70;99.90;;;;;;5011324;28;20187;-85
2023/04/20 04:20:10;;;;;;;0.67;0.67;;;8.70;99.90;;;;;;5026555;28;20184;-86
2023/04/20 04:22:36;;;;;;;0.77;0.77;;;8.70;99.90;;;;;;5010751;28;20226;-85
2023/04/20 04:25:03;;;;;;;1.03;1.03;;;8.70;99.90;;;;;;5024895;28;20211;-84
2023/04/20 04:27:33;;;;;;;0.60;0.60;;;8.70;99.90;;;;;;5024720;28;20188;-86
2023/04/20 04:29:59;;;;;;;3.17;0.77;;;8.60;99.90;;;;;;5024483;28;20176;-87
2023/04/20 04:32:25;;;;;;;8.77;0.90;;;8.60;99.90;;;;;;5025098;28;20559;-86
2023/04/20 04:34:52;;;;;;;11.53;2.33;;;8.60;99.90;;;;;;5024752;28;20235;-87
2023/04/20 04:37:18;;;;;;;6.53;0.93;;;8.60;99.90;;;;;;5024559;28;20187;-85
2023/04/20 04:39:45;;;;;;;2.37;1.60;;;8.60;99.90;;;;;;5009488;28;20188;-86
2023/04/20 04:42:10;;;;;;;4.53;0.90;;;8.60;99.90;;;;;;5009670;28;20188;-85
2023/04/20 04:44:36;;;;;;;3.30;0.90;;;8.50;99.90;;;;;;5024771;28;20186;-88
2023/04/20 04:47:04;;;;;;;0.40;0.40;;;8.60;99.90;;;;;;5024705;28;20222;-85
2023/04/20 04:49:31;;;;;;;1.27;0.70;;;8.50;99.90;;;;;;5025099;28;20215;-85
2023/04/20 04:51:56;;;;;;;1.53;1.10;;;8.50;99.90;;;;;;5026043;28;20261;-85
2023/04/20 04:54:22;;;;;;;1.03;0.83;;;8.50;99.90;;;;;;5026052;28;20218;-85
2023/04/20 04:56:48;;;;;;;0.60;0.40;;;8.50;99.90;;;;;;5025758;28;20188;-85
2023/04/20 04:59:13;;;;;;;0.87;0.87;;;8.60;99.90;;;;;;5011295;28;20198;-85
2023/04/20 05:01:39;;;;;;;0.80;0.80;;;8.50;99.90;;;;;;5010852;28;20655;-85
2023/04/20 05:04:05;;;;;;;0.70;0.70;;;8.60;99.90;;;;;;5025900;28;20645;-88
2023/04/20 05:06:31;;;;;;;1.37;0.80;;;8.60;99.90;;;;;;5010236;28;20274;-85
2023/04/20 05:08:57;;;;;;;0.60;0.53;;;8.60;99.90;;;;;;5010539;28;20206;-85
2023/04/20 05:11:23;;;;;;;0.70;0.70;;;8.70;99.90;;;;;;5025993;28;20188;-85
2023/04/20 05:13:48;;;;;;;1.07;1.00;;;8.70;99.90;;;;;;5024386;28;20619;-87
2023/04/20 05:16:15;;;;;;;0.40;0.40;;;8.70;99.90;;;;;;5024118;28;20579;-86
2023/04/20 05:18:40;;;;;;;0.87;0.87;;;8.80;99.90;;;;;;5024064;28;20210;-85
2023/04/20 05:21:06;;;;;;;0.30;0.30;;;8.90;99.90;;;;;;5024057;28;20796;-86
2023/04/20 05:23:32;;;;;;;3.50;0.90;;;8.90;99.90;;;;;;5024323;28;20271;-86
2023/04/20 05:25:58;;;;;;;8.27;1.87;;;8.90;99.90;;;;;;5008704;28;20179;-85
2023/04/20 05:28:23;;;;;;;0.67;0.67;;;8.90;99.90;;;;;;5024139;28;20769;-85
2023/04/20 05:30:49;;;;;;;1.30;1.17;;;8.90;99.90;;;;;;5008919;28;20199;-85
2023/04/20 05:33:15;;;;;;;4.77;1.07;;;8.90;99.90;;;;;;5008451;28;20933;-86
2023/04/20 05:35:45;;;;;;;0.70;0.70;;;8.90;99.90;;;;;;5023238;28;20242;-86
2023/04/20 05:38:11;;;;;;;1.57;1.47;;;9.00;99.90;;;;;;5008751;28;20191;-86
2023/04/20 05:40:37;;;;;;;1.30;1.20;;;9.00;99.90;;;;;;5008464;28;20234;-85
2023/04/20 05:43:03;;;;;;;3.30;1.13;;;9.10;99.90;;;;;;5025237;28;20192;-87
2023/04/20 05:45:29;;;;;;;3.37;0.97;;;9.20;99.90;;;;;;5009374;28;20202;-84
2023/04/20 05:47:55;;;;;;;0.53;0.53;;;9.30;99.90;;;;;;5009736;28;20782;-84
2023/04/20 05:50:25;;;;;;;0.60;0.60;;;9.20;99.90;;;;;;5025118;28;20222;-84
2023/04/20 05:52:51;;;;;;;0.70;0.70;;;9.10;99.90;;;;;;5009641;28;20672;-83
2023/04/20 05:55:18;;;;;;;0.60;0.60;;;9.00;99.90;;;;;;5024894;28;20180;-85
2023/04/20 05:57:44;;;;;;;2.63;1.43;;;9.00;99.90;;;;;;5025016;28;20336;-86
2023/04/20 06:00:12;;;;;;;0.70;0.70;;;9.00;99.90;;;;;;5025802;28;20633;-86
2023/04/20 06:02:38;;;;;;;1.30;0.77;;;9.00;99.90;;;;;;5025456;28;20187;-87
2023/04/20 06:05:04;;;;;;;0.50;0.50;;;9.00;99.90;;;;;;5010604;28;20270;-89
2023/04/20 06:07:30;;;;;;;7.40;1.07;;;9.10;99.90;;;;;;5024935;28;20188;-86
2023/04/20 06:09:56;;;;;;;6.03;0.90;;;9.10;99.90;;;;;;5025538;28;20183;-86
2023/04/20 06:12:22;;;;;;;1.43;0.80;;;9.10;99.90;;;;;;5009518;28;20219;-85
2023/04/20 06:14:48;;;;;;;1.80;1.13;;;9.10;99.90;;;;;;5024898;28;20551;-86
2023/04/20 06:17:14;;;;;;;1.37;0.90;;;9.20;99.90;;;;;;5010171;28;20187;-86
2023/04/20 06:19:39;;;;;;;1.10;0.63;;;9.10;99.90;;;;;;5025385;28;20183;-86
2023/04/20 06:22:08;;;;;;;0.33;0.33;;;9.10;99.90;;;;;;5025492;28;20302;-86
2023/04/20 06:24:35;;;;;;;0.53;0.53;;;9.00;99.90;;;;;;5009861;28;20193;-86
2023/04/20 06:27:01;;;;;;;2.30;0.83;;;9.10;99.90;;;;;;5024967;28;20318;-85
2023/04/20 06:29:27;;;;;;;0.57;0.53;;;9.00;99.90;;;;;;5025211;28;20217;-87
2023/04/20 06:31:53;;;;;;;0.70;0.70;;;9.10;99.90;;;;;;5024801;28;20230;-86
2023/04/20 06:34:19;;;;;;;1.10;0.67;;;9.10;99.90;;;;;;5025175;28;20230;-87
2023/04/20 06:36:45;;;;;;;0.83;0.83;;;9.20;99.90;;;;;;5010057;28;20534;-86
2023/04/20 06:39:11;;;;;;;0.63;0.63;;;9.30;99.90;;;;;;5025447;28;20218;-86
2023/04/20 06:41:37;;;;;;;0.30;0.30;;;9.30;99.90;;;;;;5025116;28;20557;-86
2023/04/20 06:44:04;;;;;;;2.27;0.70;;;9.40;99.90;;;;;;5010367;28;20188;-87
2023/04/20 06:46:29;;;;;;;0.53;0.53;;;9.50;99.90;;;;;;5010228;28;20175;-89
2023/04/20 06:48:55;;;;;;;0.40;0.40;;;9.40;99.90;;;;;;5010534;28;20179;-88
2023/04/20 06:51:21;;;;;;;2.57;0.83;;;9.20;99.90;;;;;;5010379;28;20672;-87
2023/04/20 06:53:47;;;;;;;0.50;0.50;;;9.20;99.90;;;;;;5024938;28;20567;-87
2023/04/20 06:56:12;;;;;;;1.07;1.03;;;9.10;99.90;;;;;;5025146;28;20187;-87
2023/04/20 06:58:38;;;;;;;1.37;1.00;;;9.20;99.90;;;;;;5010137;28;20180;-87
2023/04/20 07:01:04;;;;;;;1.37;1.27;;;9.20;99.90;;;;;;5025492;28;20249;-87
2023/04/20 07:03:30;;;;;;;0.40;0.40;;;9.20;99.90;;;;;;5025639;28;20187;-88
2023/04/20 07:05:56;;;;;;;0.60;0.60;;;9.20;99.90;;;;;;5025445;28;20194;-90
2023/04/20 07:08:22;;;;;;;1.53;0.57;;;9.80;99.90;;;;;;5025457;28;20184;-91
2023/04/20 07:10:47;;;;;;;1.30;0.60;;;10.10;99.90;;;;;;5025282;28;20282;-88
2023/04/20 07:13:13;;;;;;;0.83;0.80;;;10.50;99.90;;;;;;5025190;28;20700;-87
2023/04/20 07:15:39;;;;;;;0.40;0.40;;;10.20;99.90;;;;;;5025089;28;20255;-89
2023/04/20 07:18:05;;;;;;;1.40;0.77;;;9.60;99.90;;;;;;5010266;28;20210;-88
2023/04/20 07:20:31;;;;;;;3.40;1.07;;;9.30;99.90;;;;;;5012146;28;20249;-88
2023/04/20 07:22:57;;;;;;;0.30;0.30;;;9.20;99.90;;;;;;5010351;28;20187;-91
2023/04/20 07:25:23;;;;;;;0.60;0.60;;;9.20;99.90;;;;;;5027975;28;20230;-88
2023/04/20 07:27:49;;;;;;;0.43;0.40;;;9.10;99.90;;;;;;5011583;28;20211;-89
2023/04/20 07:30:15;;;;;;;9.77;2.03;;;9.10;99.90;;;;;;5027953;28;20633;-88
2023/04/20 07:32:43;;;;;;;0.53;0.53;;;9.00;99.90;;;;;;5013089;28;20819;-88
2023/04/20 07:35:09;;;;;;;1.40;0.90;;;8.90;99.90;;;;;;5028511;28;20223;-87
2023/04/20 07:37:35;;;;;;;0.60;0.60;;;8.90;99.90;;;;;;5029054;28;20194;-88
2023/04/20 07:40:04;;;;;;;1.57;0.83;;;8.60;99.90;;;;;;5027037;28;20183;-88
2023/04/20 07:42:35;;;;;;;1.33;0.50;;;8.30;99.90;;;;;;5026365;28;20341;-89
2023/04/20 07:45:02;;;;;;;0.93;0.70;;;8.20;99.90;;;;;;5026286;28;20175;-87
2023/04/20 07:47:28;;;;;;;2.97;0.80;;;7.90;99.90;;;;;;5011623;28;20187;-88
2023/04/20 07:49:56;;;;;;;1.00;1.00;;;7.70;99.90;;;;;;5026638;28;20609;-88
2023/04/20 07:52:22;;;;;;;0.67;0.57;;;7.60;99.90;;;;;;5012623;28;20218;-86
2023/04/20 07:54:48;;;;;;;5.50;1.63;;;7.50;99.90;;;;;;5027970;28;20270;-87
2023/04/20 07:57:14;;;;;;;0.20;0.20;;;7.40;99.90;;;;;;5011244;28;20283;-85
2023/04/20 07:59:40;;;;;;;2.27;1.07;;;7.30;99.90;;;;;;5012242;28;20183;-91
2023/04/20 08:02:06;;;;;;;1.70;0.90;;;7.30;99.90;;;;;;5011936;28;20187;-90
2023/04/20 08:04:32;;;;;;;19.73;1.57;;;7.20;99.90;;;;;;5027410;28;20176;-86
2023/04/20 08:06:57;;;;;;;0.87;0.80;;;7.20;99.90;;;;;;5027508;28;20521;-86
2023/04/20 08:09:25;;;;;;;0.50;0.50;;;7.20;99.90;;;;;;5011968;28;20282;-86
2023/04/20 08:11:51;;;;;;;1.77;1.67;;;7.30;99.90;;;;;;5026939;28;20186;-87
2023/04/20 08:14:16;;;;;;;0.77;0.70;;;7.40;99.90;;;;;;5027338;28;20183;-85
2023/04/20 08:16:42;;;;;;;1.03;0.50;;;7.50;99.90;;;;;;5011862;28;20188;-87
2023/04/20 08:19:10;;;;;;;1.50;0.80;;;7.50;99.90;;;;;;5027132;28;20190;-86
2023/04/20 08:21:40;;;;;;;1.40;0.73;;;7.60;99.90;;;;;;5026973;28;20187;-86
2023/04/20 08:24:07;;;;;;;1.13;1.13;;;7.60;99.90;;;;;;5026587;28;20230;-87
2023/04/20 08:26:33;;;;;;;1.60;1.50;;;7.60;99.90;;;;;;5011688;28;20259;-87
2023/04/20 08:29:00;;;;;;;1.40;0.80;;;7.60;99.90;;;;;;5011425;28;20179;-87
2023/04/20 08:31:26;;;;;;;0.67;0.67;;;7.60;99.90;;;;;;5026297;28;20657;-87
2023/04/20 08:33:52;;;;;;;0.40;0.40;;;7.50;99.90;;;;;;5026625;28;20253;-86
2023/04/20 08:36:18;;;;;;;1.60;1.33;;;7.50;99.90;;;;;;5011514;28;20374;-86
2023/04/20 08:38:44;;;;;;;0.57;0.57;;;7.30;99.90;;;;;;5026960;28;20188;-86
2023/04/20 08:41:14;;;;;;;1.10;1.00;;;7.30;99.90;;;;;;5025672;28;20202;-88
2023/04/20 08:43:40;;;;;;;1.10;1.00;;;7.20;99.90;;;;;;5025689;28;20270;-88
2023/04/20 08:46:08;;;;;;;1.03;0.80;;;7.00;99.90;;;;;;5010660;28;20195;-86
2023/04/20 08:48:36;;;;;;;2.90;1.67;;;7.00;99.90;;;;;;5025508;28;20183;-85
2023/04/20 08:51:03;;;;;;;0.70;0.70;;;6.90;99.90;;;;;;5010523;28;20187;-87
2023/04/20 08:53:30;;;;;;;0.60;0.60;;;6.80;99.90;;;;;;5026241;28;20265;-84
2023/04/20 08:55:57;;;;;;;6.80;2.87;;;6.70;99.90;;;;;;5010569;28;20768;-84
2023/04/20 08:58:33;;;;;;;0.40;0.40;;;6.60;99.90;;;;;;5009653;28;20180;-84
2023/04/20 09:01:00;;;;;;;0.63;0.63;;;6.50;99.90;;;;;;5010708;28;20175;-84
2023/04/20 09:03:33;;;;;;;0.50;0.50;;;6.50;99.90;;;;;;5009538;28;20773;-86
2023/04/20 09:05:59;;;;;;;0.70;0.70;;;6.40;99.90;;;;;;5010320;28;20265;-85
2023/04/20 09:08:37;;;;;;;0.80;0.80;;;6.40;99.90;;;;;;5010281;28;20203;-83
2023/04/20 09:11:03;;;;;;;1.07;1.07;;;6.40;99.90;;;;;;5010194;28;20275;-84
2023/04/20 09:13:29;;;;;;;0.73;0.73;;;6.30;99.90;;;;;;5025079;28;20215;-85
2023/04/20 09:15:55;;;;;;;3.80;0.77;;;6.40;99.90;;;;;;5025231;28;20671;-84
2023/04/20 09:18:22;;;;;;;0.60;0.60;;;6.40;99.90;;;;;;5024811;28;20175;-84
2023/04/20 09:20:51;;;;;;;5.20;1.60;;;6.40;99.90;;;;;;5009683;28;20215;-85
2023/04/20 09:23:20;;;;;;;1.90;1.07;;;6.40;99.90;;;;;;5024944;28;20384;-84
2023/04/20 09:25:49;;;;;;;1.07;0.97;;;6.50;99.90;;;;;;5009423;28;20229;-84
2023/04/20 09:28:16;;;;;;;0.43;0.43;;;6.50;99.90;;;;;;5009805;28;20190;-85
2023/04/20 09:30:47;;;;;;;1.20;0.73;;;6.50;99.90;;;;;;5024672;28;20262;-85
2023/04/20 09:33:13;;;;;;;0.50;0.50;;;6.50;99.90;;;;;;5009461;28;20222;-83
2023/04/20 09:35:41;;;;;;;1.30;1.17;;;6.70;99.90;;;;;;5009200;28;20227;-85
2023/04/20 09:38:08;;;;;;;2.33;0.60;;;6.80;99.90;;;;;;5024923;28;20282;-84
2023/04/20 09:40:34;;;;;;;0.63;0.63;;;7.00;99.90;;;;;;5009698;28;20434;-85
2023/04/20 09:43:17;;;;;;;1.47;0.90;;;7.00;99.90;;;;;;5024489;28;20329;-84
2023/04/20 09:45:43;;;;;;;0.50;0.50;;;7.00;99.90;;;;;;5009132;28;20191;-84
2023/04/20 09:48:10;;;;;;;1.43;1.33;;;7.10;99.90;;;;;;5009135;28;20541;-85
2023/04/20 09:50:37;;;;;;;0.40;0.40;;;7.30;99.90;;;;;;5009465;28;20316;-86
2023/04/20 09:53:04;;;;;;;12.43;2.30;;;7.40;99.90;;;;;;5024599;28;20237;-86
2023/04/20 09:55:31;;;;;;;1.20;0.70;;;7.30;99.90;;;;;;5009691;28;20179;-85
2023/04/20 09:57:57;;;;;;;0.70;0.67;;;7.30;99.90;;;;;;5024525;28;20554;-85
2023/04/20 10:00:24;;;;;;;4.57;1.20;;;7.30;99.90;;;;;;5024874;28;20190;-84
2023/04/20 10:02:50;;;;;;;1.80;1.70;;;7.30;99.90;;;;;;5024654;28;20214;-82
2023/04/20 10:05:16;;;;;;;1.17;1.07;;;7.30;99.90;;;;;;5023838;28;20212;-83
2023/04/20 10:07:42;;;;;;;4.70;0.97;;;7.20;99.90;;;;;;5024086;28;20184;-83
2023/04/20 10:10:13;;;;;;;1.60;1.50;;;7.20;99.90;;;;;;5024098;28;20246;-83
2023/04/20 10:12:58;;;;;;;0.70;0.70;;;7.30;99.90;;;;;;5024195;28;20231;-83
2023/04/20 10:15:38;;;;;;;0.80;0.77;;;7.40;99.90;;;;;;5008814;28;20215;-83
2023/04/20 10:18:17;;;;;;;0.70;0.70;;;7.50;99.90;;;;;;5023746;28;20866;-84
2023/04/20 10:20:43;;;;;;;1.00;0.90;;;7.70;99.90;;;;;;5008736;28;20226;-84
2023/04/20 10:23:10;;;;;;;33.03;2.50;;;7.90;99.90;;;;;;5008817;28;20195;-83
2023/04/20 10:25:36;;;;;;;2.37;2.17;;;8.10;99.90;;;;;;5024270;28;20263;-83
2023/04/20 10:28:07;;;;;;;0.70;0.70;;;8.20;99.90;;;;;;5007700;28;20180;-85
2023/04/20 10:30:36;;;;;;;0.77;0.77;;;8.00;99.90;;;;;;5023991;28;20577;-84
2023/04/20 10:33:11;;;;;;;3.60;1.43;;;8.30;99.90;;;;;;5024105;28;20289;-84
2023/04/20 10:35:54;;;;;;;4.87;1.80;;;8.30;99.90;;;;;;5008666;28;20293;-85
2023/04/20 10:38:32;;;;;;;1.37;1.20;;;8.60;99.90;;;;;;5024349;28;20291;-84
2023/04/20 10:41:08;;;;;;;1.13;0.80;;;8.80;99.90;;;;;;5008509;28;20164;-83
2023/04/20 10:43:42;;;;;;;1.27;1.23;;;8.80;99.90;;;;;;5008707;28;20715;-84
2023/04/20 10:46:17;;;;;;;2.43;1.53;;;8.60;99.90;;;;;;5008374;28;20207;-84
2023/04/20 10:48:56;;;;;;;1.37;1.27;;;8.60;99.90;;;;;;5023594;28;20435;-85
2023/04/20 10:51:23;;;;;;;1.40;1.30;;;8.60;99.90;;;;;;5008472;28;20171;-83
2023/04/20 10:54:06;;;;;;;1.40;1.30;;;8.60;99.90;;;;;;5025981;28;20297;-84
2023/04/20 10:56:44;;;;;;;1.53;1.10;;;8.50;99.90;;;;;;5028009;28;20646;-83
2023/04/20 10:59:15;;;;;;;4.47;1.43;;;8.60;99.90;;;;;;5012149;28;20179;-83
2023/04/20 11:01:41;;;;;;;1.23;1.07;;;8.50;99.90;;;;;;5025311;28;20266;-83
2023/04/20 11:04:11;;;;;;;3.57;2.10;;;8.60;99.90;;;;;;5026466;28;20806;-83
2023/04/20 11:06:43;;;;;;;3.33;1.83;;;8.60;99.90;;;;;;5011814;28;20350;-84
2023/04/20 11:09:17;;;;;;;0.80;0.80;;;8.50;99.90;;;;;;5027092;28;20203;-83
2023/04/20 11:11:43;;;;;;;0.77;0.77;;;8.40;99.90;;;;;;5011338;28;20190;-84
2023/04/20 11:14:11;;;;;;;1.87;1.67;;;8.40;99.90;;;;;;5011902;28;20183;-86
2023/04/20 11:16:38;;;;;;;0.70;0.70;;;8.40;99.90;;;;;;5026949;28;20641;-84
2023/04/20 11:19:04;;;;;;;1.63;1.40;;;8.50;99.90;;;;;;5027192;28;20560;-82
2023/04/20 11:21:41;;;;;;;1.03;1.03;;;8.50;99.90;;;;;;5026411;28;20183;-85
2023/04/20 11:24:20;;;;;;;4.07;1.20;;;8.60;99.90;;;;;;5027190;28;20179;-84
2023/04/20 11:26:48;;;;;;;1.23;1.13;;;8.60;99.90;;;;;;5011535;28;20179;-84
2023/04/20 11:29:36;;;;;;;1.90;1.23;;;8.60;99.90;;;;;;5027080;28;20179;-84
2023/04/20 11:32:07;;;;;;;1.43;0.90;;;8.60;99.90;;;;;;5011080;28;20258;-84
2023/04/20 11:34:34;;;;;;;2.90;1.77;;;8.50;99.90;;;;;;5010490;28;20231;-84
2023/04/20 11:37:09;;;;;;;1.37;1.27;;;8.40;99.90;;;;;;5025182;28;20419;-86
2023/04/20 11:39:36;;;;;;;0.80;0.80;;;8.30;99.90;;;;;;5009342;28;20189;-85
2023/04/20 11:42:03;;;;;;;1.13;1.00;;;8.40;99.90;;;;;;5024753;28;20191;-87
2023/04/20 11:44:30;;;;;;;1.37;0.90;;;8.30;99.90;;;;;;5026359;28;20270;-84
2023/04/20 11:46:56;;;;;;;1.70;1.00;;;8.40;99.90;;;;;;5010628;28;20266;-84
2023/04/20 11:49:27;;;;;;;2.20;2.10;;;8.30;99.90;;;;;;5011606;28;20224;-87
2023/04/20 11:51:53;;;;;;;1.30;1.20;;;8.30;99.90;;;;;;5010898;28;20176;-87
2023/04/20 11:54:19;;;;;;;4.27;1.97;;;8.30;99.90;;;;;;5008703;28;20367;-84
2023/04/20 11:56:45;;;;;;;1.50;1.47;;;8.40;99.90;;;;;;5024950;28;20554;-87
2023/04/20 11:59:13;;;;;;;3.03;1.43;;;8.50;99.90;;;;;;5009414;28;20750;-85
2023/04/20 12:01:39;;;;;;;1.33;1.33;;;8.50;99.90;;;;;;5023731;28;20732;-85
2023/04/20 12:04:05;;;;;;;3.27;1.77;;;8.50;99.90;;;;;;5024012;28;20199;-87
2023/04/20 12:06:31;;;;;;;1.53;1.33;;;8.70;99.90;;;;;;5008967;28;20179;-84
2023/04/20 12:08:57;;;;;;;2.80;2.50;;;8.90;99.90;;;;;;5025375;28;20267;-85
2023/04/20 12:11:23;;;;;;;4.03;2.87;;;9.20;99.90;;;;;;5025242;28;20180;-85
2023/04/20 12:13:50;;;;;;;10.40;2.00;;;9.40;99.90;;;;;;5026041;28;20334;-87
2023/04/20 12:16:16;;;;;;;26.83;2.27;;;9.50;99.90;;;;;;5010496;28;20442;-84
2023/04/20 12:18:42;;;;;;;3.43;2.27;;;9.80;99.90;;;;;;5025571;28;20240;-84
2023/04/20 12:21:08;;;;;;;2.80;1.20;;;9.70;99.90;;;;;;5010042;28;20190;-84
2023/04/20 12:23:37;;;;;;;1.07;1.07;;;9.60;99.90;;;;;;5026240;28;20758;-87
2023/04/20 12:26:04;;;;;;;1.73;1.63;;;9.30;99.90;;;;;;5024986;28;20176;-86
2023/04/20 12:28:30;;;;;;;2.67;1.57;;;9.30;99.90;;;;;;5010279;28;20183;-84
2023/04/20 12:30:56;;;;;;;1.77;1.67;;;9.40;99.90;;;;;;5024072;28;20644;-85
2023/04/20 12:33:22;;;;;;;1.53;1.43;;;9.40;99.90;;;;;;5025214;28;20333;-82
2023/04/20 12:35:48;;;;;;;3.43;2.57;;;9.30;99.90;;;;;;5007436;28;20314;-84
2023/04/20 12:38:13;;;;;;;2.60;1.90;;;9.50;99.90;;;;;;5023153;28;20203;-83
2023/04/20 12:40:39;;;;;;;2.70;1.77;;;9.40;99.90;;;;;;5007723;28;20239;-83
2023/04/20 12:43:05;;;;;;;1.27;1.17;;;9.40;99.90;;;;;;5009526;28;20191;-83
2023/04/20 12:45:31;;;;;;;1.27;1.17;;;9.40;99.90;;;;;;5025061;28;20184;-84
2023/04/20 12:47:57;;;;;;;2.07;1.70;;;9.30;99.90;;;;;;5009831;28;20532;-83
2023/04/20 12:50:23;;;;;;;1.20;0.97;;;9.30;99.90;;;;;;5009339;28;20175;-83
2023/04/20 12:52:50;;;;;;;3.73;2.97;;;9.20;99.90;;;;;;5025031;28;20212;-83
2023/04/20 12:55:17;;;;;;;3.27;2.97;;;9.40;99.90;;;;;;5024043;28;20183;-82
2023/04/20 12:57:43;;;;;;;2.27;2.10;;;9.40;99.90;;;;;;5024327;28;20211;-85